createdAt,value
2022-08-03T00:02:15.726Z,9.02
2022-08-03T00:04:43.283Z,9.60
2022-08-03T00:07:10.569Z,11.07
2022-08-03T00:09:37.835Z,11.10
2022-08-03T00:12:05.492Z,9.05
2022-08-03T00:14:32.808Z,9.70
2022-08-03T00:17:00.243Z,9.27
2022-08-03T00:19:28.320Z,12.25
2022-08-03T00:21:56.157Z,8.43
2022-08-03T00:24:23.656Z,10.40
2022-08-03T00:26:50.922Z,8.27
2022-08-03T00:29:18.277Z,10.68
2022-08-03T00:31:52.363Z,9.30
2022-08-03T00:34:22.477Z,10.05
2022-08-03T00:37:04.021Z,9.13
2022-08-03T00:39:31.371Z,8.07
2022-08-03T00:42:05.281Z,11.82
2022-08-03T00:44:32.619Z,8.52
2022-08-03T00:46:59.946Z,11.25
2022-08-03T00:49:28.604Z,9.02
2022-08-03T00:51:56.431Z,11.88
2022-08-03T00:54:25.218Z,10.70
2022-08-03T00:56:59.556Z,11.30
2022-08-03T00:59:28.489Z,14.50
2022-08-03T01:01:56.027Z,11.65
2022-08-03T01:04:24.164Z,8.98
2022-08-03T01:07:03.680Z,10.02
2022-08-03T01:10:00.923Z,8.73
2022-08-03T01:12:39.538Z,10.32
2022-08-03T01:15:32.246Z,9.52
2022-08-03T01:18:17.336Z,9.55
2022-08-03T01:20:49.657Z,10.05
2022-08-03T01:24:00.074Z,9.68
2022-08-03T01:26:41.806Z,10.52
2022-08-03T01:29:31.212Z,9.23
2022-08-03T01:32:58.714Z,9.73
2022-08-03T01:35:05.059Z,8.13
2022-08-03T01:38:12.453Z,10.10
2022-08-03T01:40:43.795Z,10.30
2022-08-03T01:44:26.219Z,8.52
2022-08-03T01:46:07.953Z,11.20
2022-08-03T01:48:38.593Z,9.05
2022-08-03T01:51:08.635Z,10.07
2022-08-03T01:53:38.251Z,9.15
2022-08-03T01:56:07.433Z,10.18
2022-08-03T01:58:39.197Z,9.88
2022-08-03T02:03:56.657Z,10.35
2022-08-03T02:07:01.755Z,11.23
2022-08-03T02:09:23.699Z,13.60
2022-08-03T02:11:55.665Z,10.37
2022-08-03T02:14:25.597Z,11.95
2022-08-03T02:16:57.398Z,9.05
2022-08-03T02:19:26.853Z,9.45
2022-08-03T02:22:00.880Z,12.00
2022-08-03T02:24:31.300Z,9.43
2022-08-03T02:27:00.729Z,9.88
2022-08-03T02:29:39.653Z,8.07
2022-08-03T02:32:15.819Z,9.70
2022-08-03T02:34:48.477Z,10.00
2022-08-03T02:37:20.305Z,9.73
2022-08-03T02:39:52.483Z,9.32
2022-08-03T02:42:24.137Z,10.35
2022-08-03T02:44:55.923Z,12.23
2022-08-03T02:47:25.565Z,8.80
2022-08-03T02:50:00.057Z,7.97
2022-08-03T02:52:32.576Z,10.35
2022-08-03T02:55:03.719Z,9.85
2022-08-03T02:57:37.187Z,11.57
2022-08-03T03:00:06.164Z,8.95
2022-08-03T03:02:37.306Z,7.78
2022-08-03T03:05:54.568Z,9.27
2022-08-03T03:07:57.309Z,10.77
2022-08-03T03:10:27.387Z,13.02
2022-08-03T03:13:06.018Z,8.85
2022-08-03T03:15:39.899Z,9.68
2022-08-03T03:18:10.640Z,9.38
2022-08-03T03:20:41.171Z,9.32
2022-08-03T03:23:10.530Z,7.50
2022-08-03T03:25:39.623Z,7.32
2022-08-03T03:28:11.111Z,8.07
2022-08-03T03:30:39.363Z,9.52
2022-08-03T03:33:07.535Z,8.55
2022-08-03T03:35:39.272Z,7.78
2022-08-03T03:40:39.156Z,8.85
2022-08-03T03:43:14.098Z,9.07
2022-08-03T03:45:43.725Z,8.50
2022-08-03T03:48:12.097Z,9.60
2022-08-03T03:50:43.596Z,8.85
2022-08-03T03:53:15.919Z,9.70
2022-08-03T03:56:01.227Z,14.02
2022-08-03T03:58:34.628Z,10.27
2022-08-03T04:01:02.328Z,9.35
2022-08-03T04:03:29.813Z,11.27
2022-08-03T04:06:19.123Z,10.48
2022-08-03T04:09:07.953Z,10.15
2022-08-03T04:11:49.993Z,8.93
2022-08-03T04:14:28.109Z,8.98
2022-08-03T04:17:04.031Z,10.23
2022-08-03T04:19:50.888Z,11.23
2022-08-03T04:22:29.620Z,12.30
2022-08-03T04:25:05.563Z,11.13
2022-08-03T04:27:40.485Z,10.07
2022-08-03T04:30:11.359Z,12.88
2022-08-03T04:32:45.479Z,11.13
2022-08-03T04:35:14.078Z,11.32
2022-08-03T04:37:52.596Z,12.60
2022-08-03T04:40:29.783Z,11.65
2022-08-03T04:43:00.626Z,14.88
2022-08-03T04:45:30.473Z,10.13
2022-08-03T04:48:03.134Z,15.38
2022-08-03T04:50:31.711Z,10.15
2022-08-03T04:53:07.429Z,12.10
2022-08-03T04:55:36.824Z,11.48
2022-08-03T04:58:06.552Z,10.15
2022-08-03T05:00:34.208Z,9.80
2022-08-03T05:03:02.385Z,9.10
2022-08-03T05:05:50.311Z,12.65
2022-08-03T05:08:20.454Z,13.90
2022-08-03T05:10:55.533Z,8.70
2022-08-03T05:13:26.658Z,13.90
2022-08-03T05:15:54.393Z,10.70
2022-08-03T05:18:21.685Z,13.23
2022-08-03T05:20:49.130Z,14.60
2022-08-03T05:23:16.431Z,13.45
2022-08-03T05:25:49.731Z,19.42
2022-08-03T05:28:17.513Z,23.25
2022-08-03T05:30:44.941Z,13.68
2022-08-03T05:33:12.253Z,15.27
2022-08-03T05:36:00.477Z,9.60
2022-08-03T05:38:28.748Z,10.23
2022-08-03T05:41:21.247Z,11.95
2022-08-03T05:43:50.998Z,10.45
2022-08-03T05:46:18.327Z,13.90
2022-08-03T05:48:45.743Z,12.25
2022-08-03T05:51:13.638Z,13.82
2022-08-03T05:53:42.728Z,12.98
2022-08-03T05:56:14.350Z,14.48
2022-08-03T05:58:49.020Z,14.40
2022-08-03T06:01:17.461Z,10.85
2022-08-03T06:03:46.158Z,10.82
2022-08-03T06:06:14.024Z,9.98
2022-08-03T06:08:42.476Z,10.77
2022-08-03T06:11:10.065Z,9.40
2022-08-03T06:13:37.473Z,11.90
2022-08-03T06:16:05.949Z,11.93
2022-08-03T06:18:33.487Z,10.48
2022-08-03T06:21:14.391Z,13.02
2022-08-03T06:23:53.306Z,12.80
2022-08-03T06:26:24.482Z,10.30
2022-08-03T06:28:54.550Z,14.25
2022-08-03T06:31:33.193Z,13.15
2022-08-03T06:34:32.916Z,11.68
2022-08-03T06:37:02.305Z,11.43
2022-08-03T06:39:30.327Z,12.55
2022-08-03T06:41:58.383Z,11.93
2022-08-03T06:44:29.772Z,12.45
2022-08-03T06:46:59.170Z,13.52
2022-08-03T06:49:28.001Z,13.02
2022-08-03T06:52:03.824Z,11.23
2022-08-03T06:54:37.972Z,9.93
2022-08-03T06:57:09.069Z,12.00
2022-08-03T07:00:08.226Z,9.40
2022-08-03T07:02:28.287Z,11.32
2022-08-03T07:04:57.249Z,9.73
2022-08-03T07:07:25.322Z,10.70
2022-08-03T07:09:57.617Z,9.93
2022-08-03T07:12:28.456Z,11.02
2022-08-03T07:15:01.253Z,11.70
2022-08-03T07:17:35.531Z,12.00
2022-08-03T07:20:07.305Z,9.68
2022-08-03T07:22:35.990Z,10.95
2022-08-03T07:25:04.182Z,8.57
2022-08-03T07:27:36.927Z,12.05
2022-08-03T07:30:08.754Z,10.25
2022-08-03T07:32:37.051Z,8.43
2022-08-03T07:35:24.873Z,10.00
2022-08-03T07:37:55.144Z,12.35
2022-08-03T07:40:23.466Z,8.73
2022-08-03T07:42:56.116Z,8.38
2022-08-03T07:45:24.482Z,8.48
2022-08-03T07:47:53.215Z,8.45
2022-08-03T07:50:22.206Z,8.57
2022-08-03T07:52:53.199Z,10.73
2022-08-03T07:55:26.093Z,7.97
2022-08-03T07:58:05.073Z,8.15
2022-08-03T08:00:34.326Z,7.97
2022-08-03T08:03:02.823Z,7.68
2022-08-03T08:05:34.298Z,9.88
2022-08-03T08:08:02.367Z,9.05
2022-08-03T08:10:30.702Z,10.30
2022-08-03T08:12:59.043Z,9.43
2022-08-03T08:15:27.146Z,7.78
2022-08-03T08:17:58.181Z,8.60
2022-08-03T08:20:34.231Z,6.95
2022-08-03T08:23:12.158Z,8.32
2022-08-03T08:25:54.000Z,8.93
2022-08-03T08:28:32.266Z,10.57
2022-08-03T08:31:02.149Z,9.43
2022-08-03T08:33:48.043Z,8.18
2022-08-03T08:36:18.567Z,10.32
2022-08-03T08:38:46.866Z,9.80
2022-08-03T08:41:15.592Z,9.27
2022-08-03T08:43:43.820Z,8.27
2022-08-03T08:46:23.259Z,8.55
2022-08-03T08:48:54.615Z,6.65
2022-08-03T08:51:54.550Z,7.95
2022-08-03T08:54:21.347Z,11.02
2022-08-03T08:56:54.074Z,8.75
2022-08-03T08:59:22.118Z,10.60
2022-08-03T09:01:50.011Z,7.60
2022-08-03T09:04:18.317Z,7.95
2022-08-03T09:07:04.447Z,8.13
2022-08-03T09:10:10.217Z,8.18
2022-08-03T09:12:42.299Z,11.45
2022-08-03T09:15:31.796Z,7.85
2022-08-03T09:18:01.835Z,11.38
2022-08-03T09:20:32.125Z,6.78
2022-08-03T09:23:44.642Z,10.57
2022-08-03T09:26:02.374Z,7.72
2022-08-03T09:29:01.370Z,8.23
2022-08-03T09:31:33.926Z,9.60
2022-08-03T09:34:05.741Z,8.57
2022-08-03T09:36:37.586Z,10.38
2022-08-03T09:39:10.928Z,7.53
2022-08-03T09:41:40.880Z,8.13
2022-08-03T09:44:09.647Z,10.43
2022-08-03T09:46:57.064Z,6.63
2022-08-03T09:49:25.651Z,8.85
2022-08-03T09:52:33.906Z,10.30
2022-08-03T09:54:42.463Z,7.07
2022-08-03T09:57:22.303Z,6.93
2022-08-03T09:59:51.175Z,9.38
2022-08-03T10:02:25.861Z,7.17
2022-08-03T10:04:54.329Z,7.53
2022-08-03T10:07:23.578Z,7.50
2022-08-03T10:10:29.080Z,7.00
2022-08-03T10:12:58.192Z,8.15
2022-08-03T10:16:23.006Z,8.43
2022-08-03T10:18:13.989Z,8.25
2022-08-03T10:20:46.840Z,7.93
2022-08-03T10:23:17.099Z,6.93
2022-08-03T10:25:53.104Z,6.20
2022-08-03T10:28:22.373Z,6.55
2022-08-03T10:30:53.887Z,6.28
2022-08-03T10:36:14.234Z,9.63
2022-08-03T10:38:47.404Z,8.23
2022-08-03T10:41:16.980Z,6.38
2022-08-03T10:43:57.005Z,8.63
2022-08-03T10:46:26.643Z,6.53
2022-08-03T10:48:54.984Z,6.65
2022-08-03T10:51:23.654Z,7.40
2022-08-03T10:53:54.185Z,6.43
2022-08-03T10:56:54.626Z,6.10
2022-08-03T10:59:51.052Z,6.30
2022-08-03T11:02:18.813Z,8.23
2022-08-03T11:04:46.358Z,6.53
2022-08-03T11:07:22.884Z,5.60
2022-08-03T11:09:56.234Z,6.40
2022-08-03T11:12:30.493Z,8.73
2022-08-03T11:15:03.346Z,6.30
2022-08-03T11:17:33.936Z,6.53
2022-08-03T11:20:14.974Z,7.95
2022-08-03T11:22:51.596Z,6.03
2022-08-03T11:25:54.428Z,6.03
2022-08-03T11:28:27.113Z,5.95
2022-08-03T11:30:56.198Z,6.22
2022-08-03T11:33:31.493Z,6.35
2022-08-03T11:36:02.166Z,6.30
2022-08-03T11:38:30.122Z,5.73
2022-08-03T11:41:03.024Z,7.40
2022-08-03T11:43:31.613Z,6.03
2022-08-03T11:46:09.103Z,6.35
2022-08-03T11:48:43.741Z,9.85
2022-08-03T11:51:28.682Z,6.60
2022-08-03T11:53:58.110Z,7.80
2022-08-03T11:56:26.569Z,6.05
2022-08-03T11:59:19.989Z,8.02
2022-08-03T12:01:46.943Z,5.25
2022-08-03T12:04:16.545Z,5.22
2022-08-03T12:07:01.970Z,5.65
2022-08-03T12:09:29.502Z,5.90
2022-08-03T12:12:00.396Z,5.78
2022-08-03T12:14:48.824Z,6.20
2022-08-03T12:17:19.549Z,6.15
2022-08-03T12:19:47.493Z,5.93
2022-08-03T12:22:17.108Z,6.57
2022-08-03T12:24:47.553Z,6.75
2022-08-03T12:27:26.886Z,5.57
2022-08-03T12:29:59.253Z,6.07
2022-08-03T12:32:30.841Z,5.80
2022-08-03T12:35:01.509Z,5.90
2022-08-03T12:37:32.902Z,5.93
2022-08-03T12:40:09.505Z,5.70
2022-08-03T12:42:41.540Z,5.93
2022-08-03T12:45:28.943Z,5.50
2022-08-03T12:47:58.718Z,5.63
2022-08-03T12:50:27.499Z,5.93
2022-08-03T12:52:55.894Z,7.70
2022-08-03T12:55:24.782Z,5.93
2022-08-03T12:57:52.297Z,7.88
2022-08-03T13:00:28.686Z,5.55
2022-08-03T13:03:38.283Z,5.50
2022-08-03T13:05:49.278Z,9.80
2022-08-03T13:08:24.912Z,5.70
2022-08-03T13:10:52.679Z,6.07
2022-08-03T13:13:38.717Z,8.32
2022-08-03T13:16:06.081Z,8.25
2022-08-03T13:18:33.512Z,6.00
2022-08-03T13:21:02.266Z,7.60
2022-08-03T13:23:30.476Z,5.47
2022-08-03T13:25:58.334Z,6.13
2022-08-03T13:28:25.686Z,5.75
2022-08-03T13:30:54.900Z,5.07
2022-08-03T13:33:22.458Z,5.25
2022-08-03T13:35:50.183Z,5.40
2022-08-03T13:38:17.886Z,5.88
2022-08-03T13:40:49.381Z,5.50
2022-08-03T13:43:17.539Z,5.32
2022-08-03T13:45:51.214Z,6.25
2022-08-03T13:48:36.138Z,6.45
2022-08-03T13:51:22.208Z,6.20
2022-08-03T13:53:52.486Z,6.18
2022-08-03T13:56:22.539Z,5.57
2022-08-03T13:58:50.060Z,5.10
2022-08-03T14:01:29.672Z,5.40
2022-08-03T14:04:05.220Z,5.72
2022-08-03T14:06:46.702Z,5.88
2022-08-03T14:09:15.299Z,5.45
2022-08-03T14:12:07.132Z,6.43
2022-08-03T14:14:31.062Z,5.78
2022-08-03T14:16:58.431Z,5.50
2022-08-03T14:19:25.952Z,5.00
2022-08-03T14:22:06.320Z,5.20
2022-08-03T14:27:16.809Z,6.53
2022-08-03T14:29:44.390Z,6.30
2022-08-03T14:32:13.426Z,6.07
2022-08-03T14:34:43.267Z,6.20
2022-08-03T14:37:10.668Z,7.65
2022-08-03T14:42:26.103Z,7.00
2022-08-03T14:44:57.296Z,7.70
2022-08-03T14:47:28.462Z,7.63
2022-08-03T14:50:37.373Z,8.48
2022-08-03T14:52:43.566Z,7.45
2022-08-03T14:55:11.200Z,7.40
2022-08-03T14:57:38.600Z,7.50
2022-08-03T15:00:06.634Z,7.78
2022-08-03T15:02:34.036Z,8.02
2022-08-03T15:05:01.394Z,8.30
2022-08-03T15:07:28.699Z,8.70
2022-08-03T15:09:56.067Z,9.00
2022-08-03T15:12:23.497Z,8.90
2022-08-03T15:14:50.793Z,9.30
2022-08-03T15:17:18.320Z,8.32
2022-08-03T15:20:00.985Z,9.10
2022-08-03T15:22:34.413Z,8.13
2022-08-03T15:25:04.124Z,8.48
2022-08-03T15:28:03.593Z,7.82
2022-08-03T15:30:36.079Z,8.20
2022-08-03T15:33:03.651Z,8.05
2022-08-03T15:35:30.971Z,7.80
2022-08-03T15:37:58.227Z,7.43
2022-08-03T15:40:25.577Z,7.00
2022-08-03T15:42:52.902Z,7.47
2022-08-03T15:45:20.464Z,8.52
2022-08-03T15:47:47.897Z,6.65
2022-08-03T15:50:15.265Z,6.55
2022-08-03T15:52:42.498Z,6.53
2022-08-03T15:55:10.256Z,6.80
2022-08-03T15:59:03.571Z,6.47
2022-08-03T16:00:33.691Z,5.90
2022-08-03T16:03:02.126Z,6.88
2022-08-03T16:05:29.519Z,6.57
2022-08-03T16:08:03.700Z,7.00
2022-08-03T16:10:32.813Z,6.43
2022-08-03T16:13:00.307Z,6.95
2022-08-03T16:15:28.163Z,6.10
2022-08-03T16:17:55.586Z,7.07
2022-08-03T16:20:33.880Z,6.22
2022-08-03T16:23:11.439Z,6.93
2022-08-03T16:25:49.162Z,6.60
2022-08-03T16:28:17.541Z,6.60
2022-08-03T16:30:46.777Z,7.50
2022-08-03T16:33:17.420Z,7.10
2022-08-03T16:35:46.939Z,6.47
2022-08-03T16:38:18.746Z,6.60
2022-08-03T16:40:51.705Z,6.07
2022-08-03T16:43:20.553Z,6.53
2022-08-03T16:45:48.426Z,6.68
2022-08-03T16:48:16.816Z,6.53
2022-08-03T16:50:45.055Z,6.53
2022-08-03T16:53:16.737Z,6.10
2022-08-03T16:55:53.433Z,6.60
2022-08-03T16:58:34.585Z,6.88
2022-08-03T17:01:21.705Z,6.30
2022-08-03T17:04:01.646Z,7.05
2022-08-03T17:06:35.305Z,6.35
2022-08-03T17:09:09.799Z,6.10
2022-08-03T17:11:47.198Z,6.20
2022-08-03T17:14:21.827Z,6.18
2022-08-03T17:16:53.846Z,6.38
2022-08-03T17:19:24.202Z,6.50
2022-08-03T17:22:04.806Z,6.05
2022-08-03T17:24:41.478Z,6.13
2022-08-03T17:28:41.919Z,6.03
2022-08-03T17:30:10.483Z,5.80
2022-08-03T17:32:56.596Z,5.82
2022-08-03T17:35:36.568Z,5.68
2022-08-03T17:38:10.293Z,5.72
2022-08-03T17:40:50.182Z,6.32
2022-08-03T17:44:13.352Z,6.50
2022-08-03T17:46:10.947Z,5.90
2022-08-03T17:48:41.401Z,5.95
2022-08-03T17:51:20.440Z,6.30
2022-08-03T17:54:18.793Z,6.00
2022-08-03T17:57:22.008Z,7.10
2022-08-03T18:00:44.281Z,6.07
2022-08-03T18:03:23.604Z,6.80
2022-08-03T18:06:11.860Z,7.20
2022-08-03T18:08:55.357Z,8.68
2022-08-03T18:14:23.929Z,7.10
2022-08-03T18:17:02.127Z,7.35
2022-08-03T18:20:02.009Z,8.02
2022-08-03T18:22:20.953Z,7.35
2022-08-03T18:24:52.179Z,10.40
2022-08-03T18:27:21.906Z,6.72
2022-08-03T18:29:54.401Z,8.80
2022-08-03T18:32:22.374Z,7.22
2022-08-03T18:37:26.815Z,7.93
2022-08-03T18:39:57.917Z,6.80
2022-08-03T18:42:26.887Z,6.40
2022-08-03T18:44:56.228Z,6.88
2022-08-03T18:47:50.456Z,7.32
2022-08-03T18:50:23.131Z,7.90
2022-08-03T18:53:15.632Z,7.10
2022-08-03T18:56:02.826Z,6.78
2022-08-03T18:58:35.165Z,9.65
2022-08-03T19:01:58.186Z,7.43
2022-08-03T19:04:13.487Z,7.03
2022-08-03T19:06:47.180Z,7.40
2022-08-03T19:09:34.454Z,7.10
2022-08-03T19:12:12.593Z,8.50
2022-08-03T19:15:00.185Z,7.53
2022-08-03T19:17:29.936Z,6.85
2022-08-03T19:19:58.835Z,7.20
2022-08-03T19:22:29.511Z,6.60
2022-08-03T19:25:04.112Z,10.38
2022-08-03T19:27:32.518Z,9.27
2022-08-03T19:30:04.082Z,6.90
2022-08-03T19:32:34.541Z,10.23
2022-08-03T19:35:05.657Z,7.45
2022-08-03T19:37:43.792Z,7.53
2022-08-03T19:40:12.436Z,7.72
2022-08-03T19:42:44.719Z,8.35
2022-08-03T19:45:21.099Z,7.43
2022-08-03T19:47:52.646Z,9.45
2022-08-03T19:52:49.839Z,11.85
2022-08-03T19:55:18.289Z,12.85
2022-08-03T19:57:49.263Z,8.23
2022-08-03T20:00:20.073Z,8.45
2022-08-03T20:02:54.393Z,10.05
2022-08-03T20:05:21.765Z,9.85
2022-08-03T20:07:50.622Z,8.38
2022-08-03T20:10:20.077Z,7.88
2022-08-03T20:12:49.221Z,7.20
2022-08-03T20:15:22.166Z,7.10
2022-08-03T20:17:54.586Z,7.75
2022-08-03T20:20:26.133Z,6.97
2022-08-03T20:22:57.440Z,8.07
2022-08-03T20:25:57.235Z,8.80
2022-08-03T20:28:49.807Z,8.55
2022-08-03T20:31:23.840Z,8.70
2022-08-03T20:34:00.715Z,6.90
2022-08-03T20:36:28.052Z,7.03
2022-08-03T20:38:57.987Z,10.75
2022-08-03T20:41:25.692Z,7.07
2022-08-03T20:43:53.257Z,8.23
2022-08-03T20:46:32.133Z,7.75
2022-08-03T20:49:05.394Z,8.27
2022-08-03T20:51:49.945Z,7.72
2022-08-03T20:54:22.668Z,8.18
2022-08-03T20:56:58.794Z,8.43
2022-08-03T20:59:38.554Z,6.65
2022-08-03T21:05:08.488Z,7.38
2022-08-03T21:08:04.893Z,6.25
2022-08-03T21:10:50.437Z,6.68
2022-08-03T21:12:57.246Z,6.63
2022-08-03T21:13:07.897Z,6.43
2022-08-03T21:13:24.695Z,9.05
2022-08-03T21:16:06.687Z,6.40
2022-08-03T21:18:46.267Z,6.50
2022-08-03T21:21:16.329Z,6.40
2022-08-03T21:23:49.078Z,6.70
2022-08-03T21:26:19.281Z,7.00
2022-08-03T21:28:49.036Z,6.60
2022-08-03T21:31:24.681Z,6.25
2022-08-03T21:33:59.723Z,6.68
2022-08-03T21:36:29.039Z,5.90
2022-08-03T21:38:57.825Z,6.55
2022-08-03T21:41:32.480Z,6.45
2022-08-03T21:44:01.059Z,7.35
2022-08-03T21:46:35.149Z,6.43
2022-08-03T21:50:05.846Z,6.35
2022-08-03T21:51:58.767Z,7.65
2022-08-03T21:54:34.847Z,7.88
2022-08-03T21:57:09.141Z,7.53
2022-08-03T21:59:40.607Z,9.07
2022-08-03T22:02:11.511Z,6.78
2022-08-03T22:04:55.635Z,6.32
2022-08-03T22:07:26.602Z,6.63
2022-08-03T22:09:56.546Z,7.30
2022-08-03T22:12:26.559Z,8.38
2022-08-03T22:15:00.462Z,7.45
2022-08-03T22:17:56.083Z,6.85
2022-08-03T22:20:19.460Z,6.20
2022-08-03T22:22:55.185Z,6.93
2022-08-03T22:25:36.432Z,7.60
2022-08-03T22:28:08.182Z,6.65
2022-08-03T22:33:11.026Z,7.40
2022-08-03T22:35:46.484Z,7.20
2022-08-03T22:38:17.325Z,7.45
2022-08-03T22:40:47.091Z,6.97
2022-08-03T22:43:14.786Z,6.85
2022-08-03T22:46:08.863Z,6.82
2022-08-03T22:48:35.423Z,8.57
2022-08-03T22:51:08.830Z,6.60
2022-08-03T22:53:36.599Z,6.75
2022-08-03T22:56:04.179Z,6.88
2022-08-03T22:58:31.488Z,8.77
2022-08-03T23:01:04.358Z,7.68
2022-08-03T23:04:01.092Z,6.97
2022-08-03T23:06:21.985Z,6.90
2022-08-03T23:08:50.610Z,7.90
2022-08-03T23:11:19.165Z,7.90
2022-08-03T23:13:52.334Z,6.70
2022-08-03T23:16:29.162Z,9.57
2022-08-03T23:18:59.626Z,6.45
2022-08-03T23:22:00.260Z,6.60
2022-08-03T23:24:24.585Z,7.05
2022-08-03T23:26:58.988Z,12.52
2022-08-03T23:29:28.275Z,7.47
2022-08-03T23:31:57.617Z,9.40
2022-08-03T23:34:44.897Z,7.47
2022-08-03T23:37:15.105Z,7.40
2022-08-03T23:39:47.248Z,7.03
2022-08-03T23:42:19.730Z,7.00
2022-08-03T23:44:50.117Z,7.80
2022-08-03T23:47:17.396Z,8.55
2022-08-03T23:49:44.684Z,9.05
2022-08-03T23:52:43.222Z,7.03
2022-08-03T23:55:26.994Z,6.88
2022-08-03T23:58:28.170Z,6.90
